Sylvan, Washington
Current Conditions -  °F | °C
As of 8:34 PM on Saturday 20 Dec 2014 (Local Time) from KTIW Reporting Station
Light Rain Light Rain  
Wind Chill: 54°   Ceiling: 1200
Heat Index: 54°   Visibility: 10mi
Dew Point: 52°   Wind: 17mph
Humidity: 93%   Direction: 200°SSW
Pressure: 29.5"   Gusts: 25mph
Location:  47.2495°N, 122.621°W
Report Text: KTIW 210434Z AUTO 20015G22KT 10SM -RA FEW008 BKN012 OVC046 12/11 A2950 RMK AO2 P0002 T01220111
Loading
Personal Weather Stations






























Interactive Weather Map New forecast layout! Learn more

10-Day Weather Forecast

Advertisements
Track Severe Weather on mobile